createdAt,value
2018-12-22T00:00:26.186Z,88.51
2018-12-22T00:05:30.574Z,87.19
2018-12-22T00:07:58.867Z,87.73
2018-12-22T00:10:27.065Z,87.00
2018-12-22T00:12:55.443Z,87.34
2018-12-22T00:15:23.613Z,86.21
2018-12-22T00:17:51.893Z,87.36
2018-12-22T00:20:20.182Z,85.82
2018-12-22T00:22:48.667Z,86.26
2018-12-22T00:25:17.010Z,86.86
2018-12-22T00:27:45.465Z,86.22
2018-12-22T00:30:13.726Z,84.24
2018-12-22T00:32:42.135Z,85.56
2018-12-22T00:35:13.527Z,84.88
2018-12-22T00:37:41.948Z,83.58
2018-12-22T00:40:10.527Z,83.03
2018-12-22T00:42:38.660Z,83.67
2018-12-22T00:45:07.303Z,84.52
2018-12-22T00:47:36.318Z,84.54
2018-12-22T00:50:05.295Z,84.02
2018-12-22T00:52:34.197Z,84.37
2018-12-22T00:55:02.421Z,83.49
2018-12-22T00:57:30.703Z,83.72
2018-12-22T00:59:59.203Z,83.22
2018-12-22T01:02:27.436Z,83.62
2018-12-22T01:04:57.192Z,83.85
2018-12-22T01:07:25.761Z,83.83
2018-12-22T01:09:54.063Z,84.54
2018-12-22T01:12:22.266Z,84.42
2018-12-22T01:14:50.645Z,85.25
2018-12-22T01:17:18.887Z,85.88
2018-12-22T01:19:47.134Z,85.61
2018-12-22T01:22:15.470Z,85.72
2018-12-22T01:24:43.654Z,86.46
2018-12-22T01:27:11.839Z,87.61
2018-12-22T01:29:40.030Z,87.18
2018-12-22T01:32:08.230Z,88.05
2018-12-22T01:34:36.393Z,88.43
2018-12-22T01:37:04.610Z,87.89
2018-12-22T01:39:33.152Z,88.58
2018-12-22T01:42:01.483Z,89.08
2018-12-22T01:44:29.791Z,89.35
2018-12-22T01:46:58.206Z,89.17
2018-12-22T01:49:26.646Z,89.60
2018-12-22T01:51:54.984Z,89.42
2018-12-22T01:54:23.362Z,89.63
2018-12-22T01:56:51.759Z,90.06
2018-12-22T01:59:19.923Z,90.73
2018-12-22T02:01:48.113Z,90.83
2018-12-22T02:04:16.227Z,90.93
2018-12-22T02:06:44.344Z,91.64
2018-12-22T02:09:12.488Z,91.04
2018-12-22T02:11:40.635Z,91.41
2018-12-22T02:14:08.760Z,91.41
2018-12-22T02:16:36.952Z,89.81
2018-12-22T02:19:05.093Z,88.76
2018-12-22T02:21:33.292Z,87.94
2018-12-22T02:24:01.521Z,87.09
2018-12-22T02:26:29.607Z,87.26
2018-12-22T02:28:57.779Z,86.92
2018-12-22T02:31:26.003Z,85.95
2018-12-22T02:33:54.135Z,84.67
2018-12-22T02:36:22.269Z,84.20
2018-12-22T02:38:50.378Z,82.70
2018-12-22T02:41:18.532Z,83.00
2018-12-22T02:43:46.872Z,82.59
2018-12-22T02:46:15.007Z,82.18
2018-12-22T02:48:43.195Z,82.50
2018-12-22T02:51:11.317Z,81.80
2018-12-22T02:53:39.483Z,82.14
2018-12-22T02:56:07.660Z,82.74
2018-12-22T02:58:35.754Z,83.47
2018-12-22T03:01:03.925Z,82.17
2018-12-22T03:03:31.999Z,81.37
2018-12-22T03:06:00.245Z,81.68
2018-12-22T03:08:28.348Z,82.20
2018-12-22T03:10:56.517Z,83.16
2018-12-22T03:13:24.755Z,83.46
2018-12-22T03:15:52.866Z,82.76
2018-12-22T03:18:21.007Z,83.30
2018-12-22T03:20:49.075Z,84.06
2018-12-22T03:23:17.304Z,84.36
2018-12-22T03:25:45.523Z,84.63
2018-12-22T03:28:13.718Z,84.47
2018-12-22T03:30:41.874Z,84.37
2018-12-22T03:33:10.055Z,84.95
2018-12-22T03:35:38.272Z,84.52
2018-12-22T03:38:06.439Z,84.85
2018-12-22T03:40:34.675Z,84.54
2018-12-22T03:43:02.762Z,84.27
2018-12-22T03:45:30.844Z,84.03
2018-12-22T03:47:58.959Z,83.55
2018-12-22T03:50:27.086Z,81.98
2018-12-22T03:52:58.177Z,80.88
2018-12-22T03:55:26.311Z,81.59
2018-12-22T03:57:54.439Z,80.12
2018-12-22T04:00:22.514Z,79.93
2018-12-22T04:02:50.598Z,80.68
2018-12-22T04:05:18.744Z,80.54
2018-12-22T04:07:46.935Z,80.57
2018-12-22T04:10:15.220Z,80.88
2018-12-22T04:12:43.417Z,80.20
2018-12-22T04:15:11.552Z,80.84
2018-12-22T04:17:39.626Z,80.94
2018-12-22T04:20:07.845Z,81.13
2018-12-22T04:22:35.987Z,80.52
2018-12-22T04:25:04.247Z,81.16
2018-12-22T04:27:32.321Z,80.37
2018-12-22T04:30:00.476Z,80.93
2018-12-22T04:32:28.650Z,80.34
2018-12-22T04:34:56.723Z,80.45
2018-12-22T04:37:24.901Z,80.52
2018-12-22T04:39:53.046Z,80.34
2018-12-22T04:42:21.134Z,80.07
2018-12-22T04:47:23.570Z,80.53
2018-12-22T04:49:51.794Z,80.75
2018-12-22T04:52:19.877Z,81.04
2018-12-22T04:54:47.956Z,82.18
2018-12-22T04:57:16.128Z,81.43
2018-12-22T04:59:44.199Z,82.09
2018-12-22T05:02:12.351Z,83.01
2018-12-22T05:04:40.457Z,83.73
2018-12-22T05:07:08.522Z,83.84
2018-12-22T05:09:36.581Z,84.16
2018-12-22T05:12:04.697Z,83.10
2018-12-22T05:14:32.827Z,84.18
2018-12-22T05:17:00.993Z,84.36
2018-12-22T05:19:29.079Z,84.50
2018-12-22T05:21:57.164Z,84.77
2018-12-22T05:24:25.325Z,85.05
2018-12-22T05:26:53.474Z,84.50
2018-12-22T05:29:21.577Z,84.09
2018-12-22T05:31:49.740Z,84.46
2018-12-22T05:34:17.912Z,84.96
2018-12-22T05:36:46.022Z,84.23
2018-12-22T05:39:14.137Z,84.25
2018-12-22T05:41:42.374Z,84.56
2018-12-22T05:44:10.497Z,84.90
2018-12-22T05:46:38.637Z,84.13
2018-12-22T05:49:06.793Z,83.82
2018-12-22T05:51:34.949Z,83.68
2018-12-22T05:54:09.757Z,83.48
2018-12-22T05:56:37.898Z,82.86
2018-12-22T05:59:06.019Z,82.76
2018-12-22T06:01:34.085Z,82.73
2018-12-22T06:04:02.201Z,83.80
2018-12-22T06:06:30.381Z,82.32
2018-12-22T06:08:58.539Z,82.25
2018-12-22T06:11:26.718Z,82.24
2018-12-22T06:13:54.898Z,81.85
2018-12-22T06:16:22.993Z,81.15
2018-12-22T06:18:51.135Z,81.49
2018-12-22T06:21:19.229Z,81.63
2018-12-22T06:23:47.312Z,81.43
2018-12-22T06:26:15.438Z,80.65
2018-12-22T06:28:43.534Z,79.75
2018-12-22T06:31:11.617Z,79.62
2018-12-22T06:33:39.810Z,79.97
2018-12-22T06:36:07.917Z,80.14
2018-12-22T06:38:36.056Z,80.69
2018-12-22T06:41:04.284Z,79.64
2018-12-22T06:43:32.478Z,79.99
2018-12-22T06:46:00.574Z,81.49
2018-12-22T06:48:28.804Z,81.29
2018-12-22T06:50:56.919Z,81.75
2018-12-22T06:53:24.994Z,81.14
2018-12-22T06:55:53.087Z,80.22
2018-12-22T06:58:21.161Z,79.93
2018-12-22T07:00:49.245Z,80.51
2018-12-22T07:03:17.333Z,80.15
2018-12-22T07:05:48.456Z,81.14
2018-12-22T07:08:16.712Z,81.14
2018-12-22T07:10:44.842Z,80.59
2018-12-22T07:13:13.062Z,80.00
2018-12-22T07:15:41.259Z,79.38
2018-12-22T07:18:09.392Z,78.51
2018-12-22T07:20:37.545Z,78.64
2018-12-22T07:23:05.704Z,78.02
2018-12-22T07:25:34.025Z,77.08
2018-12-22T07:28:02.551Z,77.29
2018-12-22T07:30:30.761Z,77.40
2018-12-22T07:32:59.123Z,76.62
2018-12-22T07:35:27.363Z,78.10
2018-12-22T07:37:55.570Z,77.52
2018-12-22T07:40:23.813Z,77.10
2018-12-22T07:42:52.023Z,77.00
2018-12-22T07:45:20.160Z,76.94
2018-12-22T07:47:48.567Z,76.87
2018-12-22T07:50:16.841Z,75.76
2018-12-22T07:52:51.575Z,76.82
2018-12-22T07:55:15.587Z,76.01
2018-12-22T07:57:43.692Z,77.04
2018-12-22T08:00:12.080Z,76.46
2018-12-22T08:02:40.342Z,75.53
2018-12-22T08:05:08.560Z,74.84
2018-12-22T08:07:37.086Z,75.82
2018-12-22T08:10:05.817Z,75.31
2018-12-22T08:12:34.490Z,74.16
2018-12-22T08:15:02.897Z,75.19
2018-12-22T08:17:31.345Z,72.63
2018-12-22T08:19:59.683Z,72.97
2018-12-22T08:22:27.827Z,73.02
2018-12-22T08:24:56.359Z,72.44
2018-12-22T08:27:25.143Z,71.73
2018-12-22T08:29:53.315Z,71.53
2018-12-22T08:32:21.584Z,71.60
2018-12-22T08:34:49.911Z,72.25
2018-12-22T08:37:18.159Z,71.49
2018-12-22T08:39:46.403Z,71.85
2018-12-22T08:42:14.686Z,72.39
2018-12-22T08:44:49.532Z,72.28
2018-12-22T08:47:17.687Z,73.10
2018-12-22T08:49:45.777Z,73.04
2018-12-22T08:52:13.854Z,75.61
2018-12-22T08:54:42.004Z,75.95
2018-12-22T08:57:10.359Z,76.60
2018-12-22T08:59:38.536Z,76.76
2018-12-22T09:02:06.746Z,76.93
2018-12-22T09:04:35.346Z,76.50
2018-12-22T09:07:03.559Z,76.98
2018-12-22T09:09:31.771Z,76.91
2018-12-22T09:11:59.906Z,77.07
2018-12-22T09:14:28.040Z,77.93
2018-12-22T09:16:56.279Z,77.13
2018-12-22T09:19:24.510Z,77.85
2018-12-22T09:21:52.619Z,77.68
2018-12-22T09:24:22.908Z,77.19
2018-12-22T09:26:51.174Z,78.46
2018-12-22T09:29:19.432Z,78.70
2018-12-22T09:31:52.479Z,78.62
2018-12-22T09:34:22.049Z,77.95
2018-12-22T09:36:53.249Z,77.88
2018-12-22T09:39:26.029Z,80.36
2018-12-22T09:41:54.669Z,78.66
2018-12-22T09:44:24.046Z,79.29
2018-12-22T09:46:52.424Z,80.20
2018-12-22T09:49:20.641Z,84.44
2018-12-22T09:51:48.898Z,86.59
2018-12-22T09:54:17.585Z,88.88
2018-12-22T09:56:46.651Z,88.27
2018-12-22T09:59:17.907Z,88.90
2018-12-22T10:01:55.225Z,90.75
2018-12-22T10:04:29.389Z,91.87
2018-12-22T10:07:04.337Z,91.83
2018-12-22T10:09:38.928Z,92.08
2018-12-22T10:12:08.099Z,92.90
2018-12-22T10:14:39.825Z,91.67
2018-12-22T10:17:09.608Z,92.72
2018-12-22T10:19:40.546Z,92.50
2018-12-22T10:22:13.172Z,90.96
2018-12-22T10:24:44.665Z,91.77
2018-12-22T10:27:13.860Z,90.98
2018-12-22T10:29:46.029Z,92.71
2018-12-22T10:32:20.173Z,92.25
2018-12-22T10:34:50.518Z,92.08
2018-12-22T10:37:25.160Z,93.66
2018-12-22T10:39:53.953Z,92.71
2018-12-22T10:42:23.251Z,92.87
2018-12-22T10:44:52.215Z,92.72
2018-12-22T10:47:21.252Z,92.89
2018-12-22T10:49:49.657Z,91.43
2018-12-22T10:52:19.594Z,91.45
2018-12-22T10:54:47.924Z,90.24
2018-12-22T10:57:16.460Z,90.05
2018-12-22T10:59:44.845Z,89.47
2018-12-22T11:02:13.237Z,89.93
2018-12-22T11:04:41.719Z,88.78
2018-12-22T11:07:10.043Z,88.81
2018-12-22T11:09:39.555Z,87.98
2018-12-22T11:12:07.832Z,87.84
2018-12-22T11:14:37.513Z,86.63
2018-12-22T11:17:09.055Z,86.78
2018-12-22T11:19:40.442Z,86.27
2018-12-22T11:22:08.714Z,84.17
2018-12-22T11:24:37.219Z,83.50
2018-12-22T11:27:18.367Z,82.49
2018-12-22T11:29:54.363Z,80.79
2018-12-22T11:32:34.709Z,81.02
2018-12-22T11:35:25.497Z,79.52
2018-12-22T11:38:08.419Z,78.71
2018-12-22T11:40:38.973Z,78.85
2018-12-22T11:43:25.909Z,78.95
2018-12-22T11:46:00.269Z,77.63
2018-12-22T11:48:41.618Z,76.05
2018-12-22T11:51:12.859Z,75.55
2018-12-22T11:54:14.812Z,76.21
2018-12-22T11:56:49.809Z,74.74
2018-12-22T11:59:22.866Z,73.50
2018-12-22T12:01:51.517Z,73.87
2018-12-22T12:04:22.074Z,73.71
2018-12-22T12:06:51.776Z,72.07
2018-12-22T12:09:20.546Z,70.55
2018-12-22T12:11:48.958Z,70.58
2018-12-22T12:14:17.181Z,71.74
2018-12-22T12:17:00.346Z,71.36
2018-12-22T12:19:30.639Z,71.99
2018-12-22T12:21:58.889Z,70.16
2018-12-22T12:24:27.525Z,72.27
2018-12-22T12:26:55.823Z,70.15
2018-12-22T12:29:24.193Z,68.90
2018-12-22T12:31:52.611Z,70.43
2018-12-22T12:34:20.909Z,69.05
2018-12-22T12:36:49.170Z,69.26
2018-12-22T12:39:17.454Z,69.42
2018-12-22T12:41:45.954Z,68.56
2018-12-22T12:44:14.261Z,66.60
2018-12-22T12:46:50.963Z,67.84
2018-12-22T12:49:20.135Z,67.09
2018-12-22T12:51:48.541Z,65.54
2018-12-22T12:54:16.862Z,65.74
2018-12-22T12:56:53.604Z,66.60
2018-12-22T12:59:22.284Z,67.74
2018-12-22T13:01:50.552Z,67.64
2018-12-22T13:04:18.933Z,64.63
2018-12-22T13:09:35.644Z,66.59
2018-12-22T13:12:14.052Z,66.77
2018-12-22T13:14:43.620Z,64.84
2018-12-22T13:17:12.058Z,65.03
2018-12-22T13:19:40.252Z,65.29
2018-12-22T13:22:08.522Z,65.72
2018-12-22T13:24:36.822Z,65.62
2018-12-22T13:27:05.038Z,65.70
2018-12-22T13:29:33.260Z,65.44
2018-12-22T13:32:09.301Z,66.06
2018-12-22T13:34:31.796Z,67.54
2018-12-22T13:37:00.013Z,66.33
2018-12-22T13:39:29.325Z,66.40
2018-12-22T13:41:57.616Z,65.76
2018-12-22T13:44:26.087Z,65.45
2018-12-22T13:46:54.331Z,66.90
2018-12-22T13:49:22.634Z,66.65
2018-12-22T13:51:50.815Z,66.63
2018-12-22T13:54:22.098Z,66.26
2018-12-22T13:56:50.437Z,66.10
2018-12-22T13:59:18.821Z,67.14
2018-12-22T14:01:53.051Z,67.78
2018-12-22T14:04:21.357Z,67.86
2018-12-22T14:06:49.536Z,68.08
2018-12-22T14:09:17.720Z,68.62
2018-12-22T14:11:46.014Z,67.45
2018-12-22T14:14:22.234Z,67.62
2018-12-22T14:19:00.365Z,67.43
2018-12-22T14:21:29.089Z,68.99
2018-12-22T14:24:09.341Z,70.34
2018-12-22T14:26:37.685Z,70.97
2018-12-22T14:29:05.887Z,71.52
2018-12-22T14:31:34.168Z,70.92
2018-12-22T14:34:07.195Z,71.52
2018-12-22T14:36:35.583Z,72.57
2018-12-22T14:39:04.514Z,72.00
2018-12-22T14:41:32.747Z,72.47
2018-12-22T14:44:01.097Z,72.63
2018-12-22T14:46:29.281Z,72.68
2018-12-22T14:49:01.117Z,72.61
2018-12-22T14:51:31.358Z,74.01
2018-12-22T14:54:12.252Z,73.74
2018-12-22T14:56:43.934Z,73.77
2018-12-22T14:59:20.046Z,74.46
2018-12-22T15:01:52.402Z,75.25
2018-12-22T15:04:20.821Z,74.80
2018-12-22T15:06:48.959Z,75.14
2018-12-22T15:09:17.028Z,75.39
2018-12-22T15:11:45.189Z,75.86
2018-12-22T15:14:13.401Z,76.65
2018-12-22T15:16:41.531Z,76.36
2018-12-22T15:19:09.696Z,76.55
2018-12-22T15:21:37.909Z,76.49
2018-12-22T15:24:07.667Z,76.53
2018-12-22T15:26:35.913Z,77.04
2018-12-22T15:29:04.239Z,77.04
2018-12-22T15:31:32.445Z,77.39
2018-12-22T15:34:00.791Z,77.61
2018-12-22T15:36:29.066Z,77.74
2018-12-22T15:39:00.370Z,78.79
2018-12-22T15:41:31.033Z,78.55
2018-12-22T15:43:59.347Z,79.62
2018-12-22T15:46:31.250Z,79.75
2018-12-22T15:49:09.471Z,79.14
2018-12-22T15:51:52.748Z,79.38
2018-12-22T15:54:25.473Z,79.74
2018-12-22T15:56:53.942Z,79.50
2018-12-22T15:59:22.176Z,80.06
2018-12-22T16:01:50.297Z,80.31
2018-12-22T16:04:18.374Z,80.10
2018-12-22T16:06:46.524Z,79.71
2018-12-22T16:09:14.612Z,80.49
2018-12-22T16:11:42.754Z,80.43
2018-12-22T16:14:10.912Z,80.60
2018-12-22T16:16:40.030Z,81.16
2018-12-22T16:19:08.245Z,81.68
2018-12-22T16:21:36.417Z,82.15
2018-12-22T16:24:04.666Z,82.46
2018-12-22T16:29:23.871Z,83.24
2018-12-22T16:31:58.473Z,82.96
2018-12-22T16:35:29.241Z,83.09
2018-12-22T16:38:13.494Z,84.72
2018-12-22T16:40:48.486Z,84.32
2018-12-22T16:43:21.048Z,83.90
2018-12-22T16:46:00.685Z,84.67
2018-12-22T16:48:30.253Z,84.75
2018-12-22T16:51:07.560Z,85.41
2018-12-22T16:53:35.824Z,84.93
2018-12-22T16:59:21.281Z,85.54
2018-12-22T17:03:49.407Z,85.10
2018-12-22T17:06:17.892Z,85.48
2018-12-22T17:08:47.710Z,85.17
2018-12-22T17:11:16.278Z,85.68
2018-12-22T17:13:46.456Z,85.32
2018-12-22T17:16:15.484Z,85.40
2018-12-22T17:18:43.831Z,85.51
2018-12-22T17:21:40.867Z,86.02
2018-12-22T17:24:16.076Z,85.82
2018-12-22T17:26:45.569Z,86.11
2018-12-22T17:29:13.836Z,86.50
2018-12-22T17:31:43.101Z,86.62
2018-12-22T17:34:11.512Z,86.60
2018-12-22T17:36:39.903Z,86.40
2018-12-22T17:39:10.572Z,86.29
2018-12-22T17:41:39.253Z,86.62
2018-12-22T17:44:07.537Z,86.16
2018-12-22T17:46:35.854Z,86.97
2018-12-22T17:49:04.898Z,87.33
2018-12-22T17:51:35.270Z,86.56
2018-12-22T17:54:03.514Z,86.22
2018-12-22T17:56:31.839Z,87.09
2018-12-22T17:59:00.104Z,86.87
2018-12-22T18:01:28.360Z,87.25
2018-12-22T18:03:56.652Z,87.28
2018-12-22T18:06:24.868Z,86.90
2018-12-22T18:08:53.115Z,86.46
2018-12-22T18:11:21.381Z,86.50
2018-12-22T18:13:49.650Z,86.75
2018-12-22T18:16:18.032Z,86.52
2018-12-22T18:18:46.418Z,86.69
2018-12-22T18:21:14.699Z,86.61
2018-12-22T18:23:43.113Z,87.02
2018-12-22T18:26:11.541Z,86.58
2018-12-22T18:28:39.828Z,86.95
2018-12-22T18:31:08.133Z,86.22
2018-12-22T18:33:36.441Z,85.78
2018-12-22T18:36:05.443Z,85.88
2018-12-22T18:38:33.766Z,85.94
2018-12-22T18:41:02.379Z,85.78
2018-12-22T18:43:30.679Z,86.42
2018-12-22T18:45:58.996Z,87.04
2018-12-22T18:48:28.327Z,87.98
2018-12-22T18:50:56.546Z,87.51
2018-12-22T18:53:24.930Z,86.74
2018-12-22T18:56:03.034Z,86.87
2018-12-22T18:58:31.216Z,86.71
2018-12-22T19:00:59.437Z,87.53
2018-12-22T19:03:31.007Z,87.70
2018-12-22T19:06:02.591Z,87.85
2018-12-22T19:08:35.760Z,87.26
2018-12-22T19:11:15.484Z,87.02
2018-12-22T19:13:44.319Z,87.32
2018-12-22T19:16:16.801Z,87.19
2018-12-22T19:18:46.317Z,87.75
2018-12-22T19:21:16.821Z,87.54
2018-12-22T19:23:51.446Z,87.59
2018-12-22T19:26:28.977Z,87.35
2018-12-22T19:29:04.856Z,87.87
2018-12-22T19:31:41.945Z,87.55
2018-12-22T19:34:30.349Z,87.96
2018-12-22T19:37:04.761Z,87.36
2018-12-22T19:39:45.751Z,88.35
2018-12-22T19:42:21.148Z,88.47
2018-12-22T19:45:01.403Z,89.27
2018-12-22T19:47:42.854Z,88.90
2018-12-22T19:50:41.929Z,89.91
2018-12-22T19:53:13.649Z,89.69
2018-12-22T19:55:45.305Z,89.96
2018-12-22T19:58:18.202Z,90.44
2018-12-22T20:01:30.251Z,90.31
2018-12-22T20:04:08.997Z,91.22
2018-12-22T20:06:48.667Z,90.68
2018-12-22T20:09:32.341Z,90.84
2018-12-22T20:12:13.039Z,90.47
2018-12-22T20:14:46.522Z,89.80
2018-12-22T20:17:25.331Z,90.05
2018-12-22T20:20:05.177Z,90.29
2018-12-22T20:22:40.323Z,90.47
2018-12-22T20:25:19.818Z,89.53
2018-12-22T20:27:54.792Z,89.56
2018-12-22T20:33:51.156Z,88.88
2018-12-22T20:36:33.095Z,88.59
2018-12-22T20:39:09.006Z,89.17
2018-12-22T20:41:52.497Z,89.35
2018-12-22T20:44:29.442Z,88.92
2018-12-22T20:50:19.117Z,89.69
2018-12-22T20:55:11.813Z,89.20
2018-12-22T20:57:41.936Z,89.11
2018-12-22T21:00:12.720Z,88.58
2018-12-22T21:02:43.999Z,87.74
2018-12-22T21:05:14.242Z,87.27
2018-12-22T21:07:46.751Z,88.05
2018-12-22T21:10:16.277Z,87.22
2018-12-22T21:12:47.997Z,86.76
2018-12-22T21:15:19.856Z,85.70
2018-12-22T21:17:50.425Z,86.37
2018-12-22T21:20:22.531Z,86.71
2018-12-22T21:22:54.604Z,84.95
2018-12-22T21:25:29.402Z,85.99
2018-12-22T21:28:24.043Z,85.66
2018-12-22T21:30:53.773Z,85.59
2018-12-22T21:33:27.781Z,85.13
2018-12-22T21:35:58.151Z,85.39
2018-12-22T21:38:31.115Z,85.54
2018-12-22T21:41:10.493Z,85.67
2018-12-22T21:43:44.307Z,85.65
2018-12-22T21:46:18.935Z,85.60
2018-12-22T21:51:38.857Z,85.37
2018-12-22T21:54:16.441Z,85.79
2018-12-22T21:56:48.113Z,85.69
2018-12-22T21:59:19.579Z,86.33
2018-12-22T22:01:58.172Z,85.67
2018-12-22T22:04:41.794Z,86.14
2018-12-22T22:07:16.825Z,86.54
2018-12-22T22:09:49.999Z,86.72
2018-12-22T22:12:26.381Z,86.45
2018-12-22T22:14:56.405Z,86.34
2018-12-22T22:17:28.361Z,87.04
2018-12-22T22:20:01.187Z,86.51
2018-12-22T22:22:41.322Z,86.20
2018-12-22T22:25:15.656Z,86.87
2018-12-22T22:27:45.653Z,86.59
2018-12-22T22:30:16.266Z,87.11
2018-12-22T22:32:55.685Z,87.52
2018-12-22T22:35:40.101Z,87.50
2018-12-22T22:38:16.386Z,87.51
2018-12-22T22:40:51.122Z,87.47
2018-12-22T22:43:25.173Z,88.52
2018-12-22T22:45:59.389Z,87.81
2018-12-22T22:48:37.475Z,88.05
2018-12-22T22:51:10.261Z,88.16
2018-12-22T22:53:41.116Z,87.81
2018-12-22T22:56:10.639Z,88.05
2018-12-22T22:58:42.772Z,87.76
2018-12-22T23:01:14.816Z,87.78
2018-12-22T23:03:49.751Z,88.29
2018-12-22T23:06:32.562Z,87.60
2018-12-22T23:09:04.396Z,88.19
2018-12-22T23:11:36.526Z,87.37
2018-12-22T23:14:11.091Z,87.47
2018-12-22T23:16:47.170Z,87.25
2018-12-22T23:19:18.951Z,88.16
2018-12-22T23:21:51.490Z,88.22
2018-12-22T23:24:24.023Z,88.20
2018-12-22T23:26:55.090Z,87.87
2018-12-22T23:29:27.123Z,88.51
2018-12-22T23:32:07.320Z,88.45
2018-12-22T23:34:37.343Z,88.65
2018-12-22T23:37:08.039Z,88.54
2018-12-22T23:42:41.138Z,87.74
2018-12-22T23:45:11.878Z,87.50
2018-12-22T23:47:43.597Z,87.84
2018-12-22T23:50:32.611Z,87.42
2018-12-22T23:53:18.436Z,87.30
2018-12-22T23:55:56.952Z,86.75
2018-12-22T23:58:35.923Z,87.37
